sensor_id;sensor_type;location;lat;lon;timestamp;pressure;altitude;pressure_sealevel;temperature;humidity
19676;BME280;39539;52.202;9.876;2023-01-28T00:01:14;101899.25;;;1.02;93.22
19676;BME280;39539;52.202;9.876;2023-01-28T00:03:39;101908.06;;;1.12;93.22
19676;BME280;39539;52.202;9.876;2023-01-28T00:06:13;101907.78;;;1.04;93.84
19676;BME280;39539;52.202;9.876;2023-01-28T00:08:39;101908.84;;;1.02;95.06
19676;BME280;39539;52.202;9.876;2023-01-28T00:11:06;101902.66;;;0.92;94.88
19676;BME280;39539;52.202;9.876;2023-01-28T00:13:33;101894.19;;;0.88;95.25
19676;BME280;39539;52.202;9.876;2023-01-28T00:16:00;101896.47;;;0.93;94.87
19676;BME280;39539;52.202;9.876;2023-01-28T00:18:27;101899.22;;;0.91;95.44
19676;BME280;39539;52.202;9.876;2023-01-28T00:21:01;101894.81;;;0.92;95.00
19676;BME280;39539;52.202;9.876;2023-01-28T00:23:27;101903.38;;;0.94;95.67
19676;BME280;39539;52.202;9.876;2023-01-28T00:25:53;101900.06;;;1.03;95.83
19676;BME280;39539;52.202;9.876;2023-01-28T00:28:19;101890.53;;;1.02;96.14
19676;BME280;39539;52.202;9.876;2023-01-28T00:30:45;101896.97;;;0.98;96.25
19676;BME280;39539;52.202;9.876;2023-01-28T00:33:10;101894.09;;;1.01;95.83
19676;BME280;39539;52.202;9.876;2023-01-28T00:35:35;101883.50;;;0.91;96.50
19676;BME280;39539;52.202;9.876;2023-01-28T00:38:01;101896.13;;;0.97;96.78
19676;BME280;39539;52.202;9.876;2023-01-28T00:40:28;101895.59;;;0.81;99.01
19676;BME280;39539;52.202;9.876;2023-01-28T00:42:53;101897.25;;;0.82;98.86
19676;BME280;39539;52.202;9.876;2023-01-28T00:45:19;101897.38;;;0.80;98.24
19676;BME280;39539;52.202;9.876;2023-01-28T00:47:44;101903.56;;;0.90;97.73
19676;BME280;39539;52.202;9.876;2023-01-28T00:50:10;101888.06;;;0.76;97.37
19676;BME280;39539;52.202;9.876;2023-01-28T00:52:35;101884.75;;;0.74;97.12
19676;BME280;39539;52.202;9.876;2023-01-28T00:55:01;101895.97;;;0.87;96.09
19676;BME280;39539;52.202;9.876;2023-01-28T00:57:27;101898.09;;;0.82;94.70
19676;BME280;39539;52.202;9.876;2023-01-28T00:59:52;101880.94;;;0.78;95.98
19676;BME280;39539;52.202;9.876;2023-01-28T01:02:17;101899.25;;;0.78;98.89
19676;BME280;39539;52.202;9.876;2023-01-28T01:04:43;101907.72;;;0.82;97.27
19676;BME280;39539;52.202;9.876;2023-01-28T01:07:20;101897.00;;;0.85;96.01
19676;BME280;39539;52.202;9.876;2023-01-28T01:09:46;101910.22;;;0.83;96.02
19676;BME280;39539;52.202;9.876;2023-01-28T01:12:11;101906.38;;;0.76;96.49
19676;BME280;39539;52.202;9.876;2023-01-28T01:14:36;101893.97;;;0.67;96.58
19676;BME280;39539;52.202;9.876;2023-01-28T01:17:02;101903.75;;;0.76;97.72
19676;BME280;39539;52.202;9.876;2023-01-28T01:19:27;101901.66;;;0.81;97.10
19676;BME280;39539;52.202;9.876;2023-01-28T01:21:55;101909.50;;;0.81;97.28
19676;BME280;39539;52.202;9.876;2023-01-28T01:24:21;101908.91;;;0.78;97.91
19676;BME280;39539;52.202;9.876;2023-01-28T01:26:46;101900.00;;;0.80;98.26
19676;BME280;39539;52.202;9.876;2023-01-28T01:29:11;101899.03;;;0.81;99.38
19676;BME280;39539;52.202;9.876;2023-01-28T01:31:37;101908.38;;;0.73;98.86
19676;BME280;39539;52.202;9.876;2023-01-28T01:34:03;101898.28;;;0.68;97.47
19676;BME280;39539;52.202;9.876;2023-01-28T01:36:28;101890.84;;;0.62;95.99
19676;BME280;39539;52.202;9.876;2023-01-28T01:38:54;101901.50;;;0.72;96.14
19676;BME280;39539;52.202;9.876;2023-01-28T01:41:26;101906.38;;;0.76;96.49
19676;BME280;39539;52.202;9.876;2023-01-28T01:43:58;101901.28;;;0.75;95.48
19676;BME280;39539;52.202;9.876;2023-01-28T01:46:41;101910.09;;;0.85;95.97
19676;BME280;39539;52.202;9.876;2023-01-28T01:49:20;101905.09;;;0.82;96.17
19676;BME280;39539;52.202;9.876;2023-01-28T01:51:50;101900.94;;;0.79;95.90
19676;BME280;39539;52.202;9.876;2023-01-28T01:54:19;101912.34;;;0.78;95.59
19676;BME280;39539;52.202;9.876;2023-01-28T01:56:48;101904.72;;;0.75;96.04
19676;BME280;39539;52.202;9.876;2023-01-28T01:59:19;101888.28;;;0.73;96.02
19676;BME280;39539;52.202;9.876;2023-01-28T02:01:47;101901.88;;;0.78;95.97
19676;BME280;39539;52.202;9.876;2023-01-28T02:04:18;101906.31;;;0.65;93.57
19676;BME280;39539;52.202;9.876;2023-01-28T02:06:47;101913.31;;;0.77;94.93
19676;BME280;39539;52.202;9.876;2023-01-28T02:09:29;101913.31;;;0.77;95.22
19676;BME280;39539;52.202;9.876;2023-01-28T02:12:02;101919.47;;;0.76;95.80
19676;BME280;39539;52.202;9.876;2023-01-28T02:14:32;101922.59;;;0.81;95.63
19676;BME280;39539;52.202;9.876;2023-01-28T02:17:00;101924.00;;;0.74;93.96
19676;BME280;39539;52.202;9.876;2023-01-28T02:19:36;101921.16;;;0.77;93.18
19676;BME280;39539;52.202;9.876;2023-01-28T02:22:28;101927.97;;;0.67;93.72
19676;BME280;39539;52.202;9.876;2023-01-28T02:31:46;101912.69;;;0.50;94.96
19676;BME280;39539;52.202;9.876;2023-01-28T02:33:56;101917.91;;;0.50;94.35
19676;BME280;39539;52.202;9.876;2023-01-28T02:36:49;101917.59;;;0.54;95.10
19676;BME280;39539;52.202;9.876;2023-01-28T02:39:21;101924.56;;;0.54;94.78
19676;BME280;39539;52.202;9.876;2023-01-28T02:42:17;101924.38;;;0.57;95.46
19676;BME280;39539;52.202;9.876;2023-01-28T02:44:43;101915.56;;;0.58;94.78
19676;BME280;39539;52.202;9.876;2023-01-28T02:47:13;101921.63;;;0.58;95.07
19676;BME280;39539;52.202;9.876;2023-01-28T02:50:01;101909.53;;;0.57;94.24
19676;BME280;39539;52.202;9.876;2023-01-28T02:58:51;101899.91;;;0.45;94.43
19676;BME280;39539;52.202;9.876;2023-01-28T03:01:28;101904.09;;;0.48;94.10
19676;BME280;39539;52.202;9.876;2023-01-28T03:04:13;101905.38;;;0.42;94.85
19676;BME280;39539;52.202;9.876;2023-01-28T03:06:49;101908.50;;;0.47;94.76
19676;BME280;39539;52.202;9.876;2023-01-28T03:09:18;101909.56;;;0.44;94.69
19676;BME280;39539;52.202;9.876;2023-01-28T03:14:59;101905.94;;;0.34;95.73
19676;BME280;39539;52.202;9.876;2023-01-28T03:17:48;101907.38;;;0.38;94.50
19676;BME280;39539;52.202;9.876;2023-01-28T03:21:02;101910.22;;;0.35;93.57
19676;BME280;39539;52.202;9.876;2023-01-28T03:23:53;101902.16;;;0.38;94.06
19676;BME280;39539;52.202;9.876;2023-01-28T03:27:13;101895.13;;;0.39;93.80
19676;BME280;39539;52.202;9.876;2023-01-28T03:30:03;101901.19;;;0.39;93.96
19676;BME280;39539;52.202;9.876;2023-01-28T03:32:49;101896.19;;;0.36;94.91
19676;BME280;39539;52.202;9.876;2023-01-28T03:35:35;101894.13;;;0.29;95.63
19676;BME280;39539;52.202;9.876;2023-01-28T03:38:20;101890.34;;;0.33;95.61
19676;BME280;39539;52.202;9.876;2023-01-28T03:41:00;101896.63;;;0.30;95.52
19676;BME280;39539;52.202;9.876;2023-01-28T03:43:27;101897.47;;;0.31;94.89
19676;BME280;39539;52.202;9.876;2023-01-28T03:45:54;101892.34;;;0.29;95.31
19676;BME280;39539;52.202;9.876;2023-01-28T03:48:22;101892.88;;;0.34;95.04
19676;BME280;39539;52.202;9.876;2023-01-28T03:50:48;101896.75;;;0.29;95.49
19676;BME280;39539;52.202;9.876;2023-01-28T03:53:15;101899.03;;;0.33;95.31
19676;BME280;39539;52.202;9.876;2023-01-28T03:55:41;101890.94;;;0.36;94.49
19676;BME280;39539;52.202;9.876;2023-01-28T03:58:08;101895.97;;;0.39;92.31
19676;BME280;39539;52.202;9.876;2023-01-28T04:00:33;101893.97;;;0.43;91.35
19676;BME280;39539;52.202;9.876;2023-01-28T04:03:03;101899.44;;;0.40;93.21
19676;BME280;39539;52.202;9.876;2023-01-28T04:05:29;101899.22;;;0.43;93.91
19676;BME280;39539;52.202;9.876;2023-01-28T04:07:54;101898.56;;;0.39;94.18
19676;BME280;39539;52.202;9.876;2023-01-28T04:10:20;101900.59;;;0.36;95.78
19676;BME280;39539;52.202;9.876;2023-01-28T04:12:46;101898.50;;;0.28;97.02
19676;BME280;39539;52.202;9.876;2023-01-28T04:15:14;101907.81;;;0.32;95.82
19676;BME280;39539;52.202;9.876;2023-01-28T04:17:44;101909.91;;;0.27;95.37
19676;BME280;39539;52.202;9.876;2023-01-28T04:20:10;101911.59;;;0.28;96.63
19676;BME280;39539;52.202;9.876;2023-01-28T04:22:36;101912.75;;;0.24;96.53
19676;BME280;39539;52.202;9.876;2023-01-28T04:25:02;101911.50;;;0.17;96.11
19676;BME280;39539;52.202;9.876;2023-01-28T04:27:27;101925.09;;;0.22;92.57
19676;BME280;39539;52.202;9.876;2023-01-28T04:29:53;101927.19;;;0.30;85.78
19676;BME280;39539;52.202;9.876;2023-01-28T04:32:18;101922.25;;;0.38;84.61
19676;BME280;39539;52.202;9.876;2023-01-28T04:34:43;101923.13;;;0.50;84.21
19676;BME280;39539;52.202;9.876;2023-01-28T04:37:09;101929.19;;;0.50;87.18
19676;BME280;39539;52.202;9.876;2023-01-28T04:39:35;101926.06;;;0.45;85.60
19676;BME280;39539;52.202;9.876;2023-01-28T04:42:01;101937.41;;;0.46;86.42
19676;BME280;39539;52.202;9.876;2023-01-28T04:44:26;101940.94;;;0.44;84.23
19676;BME280;39539;52.202;9.876;2023-01-28T04:46:51;101943.47;;;0.33;84.43
19676;BME280;39539;52.202;9.876;2023-01-28T04:49:17;101952.06;;;0.35;85.36
19676;BME280;39539;52.202;9.876;2023-01-28T04:51:42;101942.03;;;0.29;85.45
19676;BME280;39539;52.202;9.876;2023-01-28T04:54:07;101925.66;;;0.14;86.27
19676;BME280;39539;52.202;9.876;2023-01-28T04:56:33;101941.28;;;0.27;85.35
19676;BME280;39539;52.202;9.876;2023-01-28T04:58:58;101928.44;;;0.24;84.50
19676;BME280;39539;52.202;9.876;2023-01-28T05:01:23;101926.63;;;0.37;86.17
19676;BME280;39539;52.202;9.876;2023-01-28T05:03:49;101940.75;;;0.35;87.59
19676;BME280;39539;52.202;9.876;2023-01-28T05:06:15;101919.25;;;0.18;89.48
19676;BME280;39539;52.202;9.876;2023-01-28T05:08:40;101934.41;;;0.26;90.91
19676;BME280;39539;52.202;9.876;2023-01-28T05:11:05;101938.69;;;0.27;90.36
19676;BME280;39539;52.202;9.876;2023-01-28T05:13:31;101937.94;;;0.25;89.20
19676;BME280;39539;52.202;9.876;2023-01-28T05:15:56;101934.50;;;0.25;87.72
19676;BME280;39539;52.202;9.876;2023-01-28T05:18:23;101938.69;;;0.27;89.77
19676;BME280;39539;52.202;9.876;2023-01-28T05:20:50;101929.69;;;0.31;90.74
19676;BME280;39539;52.202;9.876;2023-01-28T05:23:15;101935.34;;;0.25;91.67
19676;BME280;39539;52.202;9.876;2023-01-28T05:25:40;101937.84;;;0.27;90.09
19676;BME280;39539;52.202;9.876;2023-01-28T05:28:06;101935.63;;;0.33;88.23
19676;BME280;39539;52.202;9.876;2023-01-28T05:30:31;101933.97;;;0.32;87.00
19676;BME280;39539;52.202;9.876;2023-01-28T05:32:57;101934.63;;;0.23;86.22
19676;BME280;39539;52.202;9.876;2023-01-28T05:35:22;101943.31;;;0.24;86.60
19676;BME280;39539;52.202;9.876;2023-01-28T05:37:48;101946.00;;;0.22;87.93
19676;BME280;39539;52.202;9.876;2023-01-28T05:40:13;101933.06;;;0.20;86.87
19676;BME280;39539;52.202;9.876;2023-01-28T05:42:39;101917.16;;;0.11;84.40
19676;BME280;39539;52.202;9.876;2023-01-28T05:45:04;101930.31;;;0.22;82.38
19676;BME280;39539;52.202;9.876;2023-01-28T05:47:30;101909.84;;;0.16;82.96
19676;BME280;39539;52.202;9.876;2023-01-28T05:49:55;101920.16;;;0.30;87.26
19676;BME280;39539;52.202;9.876;2023-01-28T05:52:21;101912.97;;;0.21;89.49
19676;BME280;39539;52.202;9.876;2023-01-28T05:54:46;101916.53;;;0.20;89.05
19676;BME280;39539;52.202;9.876;2023-01-28T05:57:13;101923.59;;;0.31;86.47
19676;BME280;39539;52.202;9.876;2023-01-28T05:59:38;101926.16;;;0.19;86.59
19676;BME280;39539;52.202;9.876;2023-01-28T06:02:03;101930.22;;;0.24;86.86
19676;BME280;39539;52.202;9.876;2023-01-28T06:04:29;101924.25;;;0.21;86.04
19676;BME280;39539;52.202;9.876;2023-01-28T06:06:54;101923.44;;;0.21;89.27
19676;BME280;39539;52.202;9.876;2023-01-28T06:09:20;101917.59;;;0.17;90.22
19676;BME280;39539;52.202;9.876;2023-01-28T06:11:45;101921.66;;;0.21;89.21
19676;BME280;39539;52.202;9.876;2023-01-28T06:14:10;101923.88;;;0.15;90.08
19676;BME280;39539;52.202;9.876;2023-01-28T06:16:36;101907.66;;;0.10;90.00
19676;BME280;39539;52.202;9.876;2023-01-28T06:19:01;101926.78;;;0.23;86.46
19676;BME280;39539;52.202;9.876;2023-01-28T06:21:27;101937.13;;;0.25;82.43
19676;BME280;39539;52.202;9.876;2023-01-28T06:23:52;101931.50;;;0.18;81.55
19676;BME280;39539;52.202;9.876;2023-01-28T06:26:18;101939.13;;;0.21;84.24
19676;BME280;39539;52.202;9.876;2023-01-28T06:28:43;101923.22;;;0.11;87.11
19676;BME280;39539;52.202;9.876;2023-01-28T06:31:10;101929.53;;;0.09;83.65
19676;BME280;39539;52.202;9.876;2023-01-28T06:33:35;101921.97;;;0.17;83.48
19676;BME280;39539;52.202;9.876;2023-01-28T06:36:04;101936.59;;;0.32;83.17
19676;BME280;39539;52.202;9.876;2023-01-28T06:38:31;101934.50;;;0.25;86.96
19676;BME280;39539;52.202;9.876;2023-01-28T06:40:56;101917.91;;;0.13;89.18
19676;BME280;39539;52.202;9.876;2023-01-28T06:43:22;101926.56;;;0.13;91.71
19676;BME280;39539;52.202;9.876;2023-01-28T06:45:55;101929.81;;;0.17;91.52
19676;BME280;39539;52.202;9.876;2023-01-28T06:48:22;101934.63;;;0.23;89.52
19676;BME280;39539;52.202;9.876;2023-01-28T06:50:47;101925.53;;;0.16;89.73
19676;BME280;39539;52.202;9.876;2023-01-28T06:53:14;101921.97;;;0.17;88.59
19676;BME280;39539;52.202;9.876;2023-01-28T06:55:39;101928.59;;;0.10;88.45
19676;BME280;39539;52.202;9.876;2023-01-28T06:58:05;101929.94;;;0.15;88.03
19676;BME280;39539;52.202;9.876;2023-01-28T07:00:30;101930.03;;;0.14;90.62
19676;BME280;39539;52.202;9.876;2023-01-28T07:02:56;101922.69;;;0.19;90.76
19676;BME280;39539;52.202;9.876;2023-01-28T07:05:22;101924.38;;;0.20;91.49
19676;BME280;39539;52.202;9.876;2023-01-28T07:07:47;101927.94;;;0.19;92.48
19676;BME280;39539;52.202;9.876;2023-01-28T07:10:13;101929.88;;;0.28;92.47
19676;BME280;39539;52.202;9.876;2023-01-28T07:12:38;101932.91;;;0.35;93.04
19676;BME280;39539;52.202;9.876;2023-01-28T07:15:04;101928.22;;;0.40;94.00
19676;BME280;39539;52.202;9.876;2023-01-28T07:17:30;101937.41;;;0.33;93.83
19676;BME280;39539;52.202;9.876;2023-01-28T07:19:55;101935.84;;;0.30;94.82
19676;BME280;39539;52.202;9.876;2023-01-28T07:22:21;101929.34;;;0.36;95.57
19676;BME280;39539;52.202;9.876;2023-01-28T07:24:46;101939.28;;;0.43;96.37
19676;BME280;39539;52.202;9.876;2023-01-28T07:27:11;101936.91;;;0.28;94.21
19676;BME280;39539;52.202;9.876;2023-01-28T07:29:37;101938.50;;;0.17;93.64
19676;BME280;39539;52.202;9.876;2023-01-28T07:32:02;101935.78;;;0.19;95.41
19676;BME280;39539;52.202;9.876;2023-01-28T07:34:29;101933.28;;;0.05;94.32
19676;BME280;39539;52.202;9.876;2023-01-28T07:36:54;101935.38;;;-0.01;88.40
19676;BME280;39539;52.202;9.876;2023-01-28T07:39:21;101939.78;;;-0.01;90.30
19676;BME280;39539;52.202;9.876;2023-01-28T07:41:46;101945.22;;;0.09;91.79
19676;BME280;39539;52.202;9.876;2023-01-28T07:44:12;101949.50;;;0.10;91.81
19676;BME280;39539;52.202;9.876;2023-01-28T07:46:37;101947.31;;;0.04;92.76
19676;BME280;39539;52.202;9.876;2023-01-28T07:49:02;101939.03;;;-0.03;93.99
19676;BME280;39539;52.202;9.876;2023-01-28T07:51:28;101954.81;;;0.21;95.58
19676;BME280;39539;52.202;9.876;2023-01-28T07:53:53;101949.16;;;0.27;94.02
19676;BME280;39539;52.202;9.876;2023-01-28T07:56:18;101949.53;;;0.34;93.43
19676;BME280;39539;52.202;9.876;2023-01-28T07:58:44;101959.59;;;0.40;92.61
19676;BME280;39539;52.202;9.876;2023-01-28T08:01:09;101952.28;;;0.32;92.35
19676;BME280;39539;52.202;9.876;2023-01-28T08:03:35;101945.78;;;0.25;95.00
19676;BME280;39539;52.202;9.876;2023-01-28T08:06:00;101956.84;;;0.41;92.20
19676;BME280;39539;52.202;9.876;2023-01-28T08:08:26;101954.88;;;0.32;90.82
19676;BME280;39539;52.202;9.876;2023-01-28T08:10:52;101965.13;;;0.35;89.28
19676;BME280;39539;52.202;9.876;2023-01-28T08:13:18;101966.56;;;0.39;84.72
19676;BME280;39539;52.202;9.876;2023-01-28T08:15:44;101966.41;;;0.30;82.73
19676;BME280;39539;52.202;9.876;2023-01-28T08:18:11;101966.69;;;0.38;83.46
19676;BME280;39539;52.202;9.876;2023-01-28T08:20:38;101972.53;;;0.41;82.99
19676;BME280;39539;52.202;9.876;2023-01-28T08:23:15;101970.75;;;0.42;82.63
19676;BME280;39539;52.202;9.876;2023-01-28T08:25:41;101976.63;;;0.46;80.63
19676;BME280;39539;52.202;9.876;2023-01-28T08:28:08;101978.81;;;0.52;81.90
19676;BME280;39539;52.202;9.876;2023-01-28T08:30:34;101974.34;;;0.65;81.77
19676;BME280;39539;52.202;9.876;2023-01-28T08:33:01;101996.28;;;0.88;83.20
19676;BME280;39539;52.202;9.876;2023-01-28T08:35:27;102003.53;;;0.96;84.37
19676;BME280;39539;52.202;9.876;2023-01-28T08:37:53;101990.97;;;1.01;83.26
19676;BME280;39539;52.202;9.876;2023-01-28T08:40:19;101985.28;;;1.07;82.89
19676;BME280;39539;52.202;9.876;2023-01-28T08:42:48;102012.03;;;1.23;81.82
19676;BME280;39539;52.202;9.876;2023-01-28T08:45:15;102007.78;;;1.33;82.74
19676;BME280;39539;52.202;9.876;2023-01-28T08:47:51;102005.31;;;1.43;82.02
19676;BME280;39539;52.202;9.876;2023-01-28T08:50:18;102015.91;;;1.42;79.90
19676;BME280;39539;52.202;9.876;2023-01-28T08:52:45;102019.00;;;1.47;79.05
19676;BME280;39539;52.202;9.876;2023-01-28T08:55:11;102018.78;;;1.50;78.11
19676;BME280;39539;52.202;9.876;2023-01-28T08:57:37;102013.03;;;1.33;79.66
19676;BME280;39539;52.202;9.876;2023-01-28T09:00:03;102006.88;;;1.46;80.23
19676;BME280;39539;52.202;9.876;2023-01-28T09:02:29;102020.22;;;1.54;78.41
19676;BME280;39539;52.202;9.876;2023-01-28T09:04:54;102023.00;;;1.64;78.51
19676;BME280;39539;52.202;9.876;2023-01-28T09:07:20;102028.81;;;1.56;79.17
19676;BME280;39539;52.202;9.876;2023-01-28T09:09:45;102026.44;;;1.64;80.26
19676;BME280;39539;52.202;9.876;2023-01-28T09:12:10;102018.72;;;1.63;81.55
19676;BME280;39539;52.202;9.876;2023-01-28T09:14:36;102033.75;;;1.83;81.47
19676;BME280;39539;52.202;9.876;2023-01-28T09:17:03;102037.44;;;1.80;81.17
19676;BME280;39539;52.202;9.876;2023-01-28T09:19:29;102033.66;;;1.85;79.74
19676;BME280;39539;52.202;9.876;2023-01-28T09:21:54;102036.38;;;1.83;78.04
19676;BME280;39539;52.202;9.876;2023-01-28T09:24:20;102028.25;;;1.75;76.83
19676;BME280;39539;52.202;9.876;2023-01-28T09:26:47;102039.38;;;1.78;74.07
19676;BME280;39539;52.202;9.876;2023-01-28T09:29:13;102032.44;;;1.77;74.96
19676;BME280;39539;52.202;9.876;2023-01-28T09:31:39;102030.94;;;1.51;74.14
19676;BME280;39539;52.202;9.876;2023-01-28T09:34:05;102034.81;;;1.10;74.84
19676;BME280;39539;52.202;9.876;2023-01-28T09:36:30;102042.06;;;1.30;77.18
19676;BME280;39539;52.202;9.876;2023-01-28T09:38:57;102051.88;;;1.40;82.23
19676;BME280;39539;52.202;9.876;2023-01-28T09:41:26;102054.47;;;1.40;83.30
19676;BME280;39539;52.202;9.876;2023-01-28T09:46:35;102061.16;;;1.44;82.42
19676;BME280;39539;52.202;9.876;2023-01-28T09:49:08;102058.09;;;1.26;81.64
19676;BME280;39539;52.202;9.876;2023-01-28T09:51:41;102055.69;;;1.47;82.57
19676;BME280;39539;52.202;9.876;2023-01-28T09:56:44;102068.00;;;1.57;83.59
19676;BME280;39539;52.202;9.876;2023-01-28T09:59:20;102063.84;;;1.66;82.93
19676;BME280;39539;52.202;9.876;2023-01-28T10:01:59;102060.50;;;1.53;83.83
19676;BME280;39539;52.202;9.876;2023-01-28T10:09:54;102061.53;;;1.86;82.39
19676;BME280;39539;52.202;9.876;2023-01-28T10:17:53;102055.34;;;1.98;80.33
19676;BME280;39539;52.202;9.876;2023-01-28T10:20:56;102059.41;;;1.91;79.94
19676;BME280;39539;52.202;9.876;2023-01-28T10:25:43;102051.06;;;1.97;78.23
19676;BME280;39539;52.202;9.876;2023-01-28T10:28:27;102049.41;;;1.85;78.89
19676;BME280;39539;52.202;9.876;2023-01-28T10:30:53;102050.22;;;1.85;79.20
19676;BME280;39539;52.202;9.876;2023-01-28T10:33:37;102039.56;;;1.75;78.86
19676;BME280;39539;52.202;9.876;2023-01-28T10:36:05;102025.16;;;1.70;80.80
19676;BME280;39539;52.202;9.876;2023-01-28T10:38:31;102024.88;;;1.50;83.73
19676;BME280;39539;52.202;9.876;2023-01-28T10:41:01;102003.38;;;1.34;83.71
19676;BME280;39539;52.202;9.876;2023-01-28T10:43:32;102022.59;;;1.46;84.39
19676;BME280;39539;52.202;9.876;2023-01-28T10:46:12;102022.09;;;1.41;84.30
19676;BME280;39539;52.202;9.876;2023-01-28T10:48:45;101999.81;;;1.35;84.95
19676;BME280;39539;52.202;9.876;2023-01-28T10:51:12;102024.38;;;1.45;85.09
19676;BME280;39539;52.202;9.876;2023-01-28T10:53:43;102030.13;;;1.50;85.72
19676;BME280;39539;52.202;9.876;2023-01-28T10:56:16;102030.25;;;1.60;84.73
19676;BME280;39539;52.202;9.876;2023-01-28T10:58:59;102024.97;;;1.84;83.76
19676;BME280;39539;52.202;9.876;2023-01-28T11:01:37;102039.19;;;2.04;82.84
19676;BME280;39539;52.202;9.876;2023-01-28T11:04:03;102039.78;;;2.08;81.22
19676;BME280;39539;52.202;9.876;2023-01-28T11:06:30;102044.44;;;2.15;80.57
19676;BME280;39539;52.202;9.876;2023-01-28T11:08:55;102040.38;;;2.22;79.18
19676;BME280;39539;52.202;9.876;2023-01-28T11:11:26;102045.88;;;2.31;78.40
19676;BME280;39539;52.202;9.876;2023-01-28T11:13:53;102044.31;;;2.17;79.39
19676;BME280;39539;52.202;9.876;2023-01-28T11:16:22;102045.63;;;2.11;81.27
19676;BME280;39539;52.202;9.876;2023-01-28T11:18:53;102028.81;;;2.14;81.16
19676;BME280;39539;52.202;9.876;2023-01-28T11:21:30;102029.88;;;2.11;80.96
19676;BME280;39539;52.202;9.876;2023-01-28T11:24:01;102048.34;;;1.98;82.48
19676;BME280;39539;52.202;9.876;2023-01-28T11:26:37;102045.84;;;1.97;81.13
19676;BME280;39539;52.202;9.876;2023-01-28T11:29:03;102038.66;;;1.88;79.48
19676;BME280;39539;52.202;9.876;2023-01-28T11:31:37;102039.59;;;1.87;83.12
19676;BME280;39539;52.202;9.876;2023-01-28T11:34:05;102039.13;;;1.82;82.76
19676;BME280;39539;52.202;9.876;2023-01-28T11:36:32;102037.47;;;1.92;81.88
19676;BME280;39539;52.202;9.876;2023-01-28T11:39:17;102032.97;;;2.05;82.49
19676;BME280;39539;52.202;9.876;2023-01-28T11:41:45;102038.34;;;2.26;81.47
19676;BME280;39539;52.202;9.876;2023-01-28T11:44:18;102035.03;;;2.24;79.72
19676;BME280;39539;52.202;9.876;2023-01-28T12:00:14;102010.09;;;2.41;76.47
19676;BME280;39539;52.202;9.876;2023-01-28T12:08:25;102001.50;;;2.50;75.54
19676;BME280;39539;52.202;9.876;2023-01-28T12:25:37;101974.44;;;2.38;77.21
19676;BME280;39539;52.202;9.876;2023-01-28T12:27:48;101975.28;;;2.39;79.58
19676;BME280;39539;52.202;9.876;2023-01-28T12:33:13;101966.53;;;2.61;73.84
19676;BME280;39539;52.202;9.876;2023-01-28T12:40:54;101953.00;;;2.77;74.30
19676;BME280;39539;52.202;9.876;2023-01-28T12:43:40;101931.56;;;2.60;74.38
19676;BME280;39539;52.202;9.876;2023-01-28T12:46:17;101903.25;;;2.32;71.06
19676;BME280;39539;52.202;9.876;2023-01-28T12:48:51;101867.28;;;2.11;71.18
19676;BME280;39539;52.202;9.876;2023-01-28T12:51:24;101858.59;;;1.99;72.31
19676;BME280;39539;52.202;9.876;2023-01-28T12:54:00;101864.22;;;1.84;72.21
19676;BME280;39539;52.202;9.876;2023-01-28T12:56:33;101858.28;;;1.70;72.02
19676;BME280;39539;52.202;9.876;2023-01-28T12:59:04;101847.41;;;1.64;71.66
19676;BME280;39539;52.202;9.876;2023-01-28T13:04:16;101822.88;;;1.20;74.52
19676;BME280;39539;52.202;9.876;2023-01-28T13:06:48;101834.88;;;1.11;75.96
19676;BME280;39539;52.202;9.876;2023-01-28T13:09:21;101832.25;;;1.11;79.19
19676;BME280;39539;52.202;9.876;2023-01-28T13:11:49;101833.91;;;1.01;79.27
19676;BME280;39539;52.202;9.876;2023-01-28T13:14:16;101835.06;;;0.85;82.75
19676;BME280;39539;52.202;9.876;2023-01-28T13:16:42;101846.66;;;1.05;82.85
19676;BME280;39539;52.202;9.876;2023-01-28T13:21:42;101867.28;;;1.44;81.96
19676;BME280;39539;52.202;9.876;2023-01-28T13:31:52;101870.84;;;1.20;79.13
19676;BME280;39539;52.202;9.876;2023-01-28T13:36:59;101881.38;;;1.07;83.77
19676;BME280;39539;52.202;9.876;2023-01-28T13:39:27;101885.09;;;1.05;82.73
19676;BME280;39539;52.202;9.876;2023-01-28T13:42:06;101877.91;;;0.96;82.69
19676;BME280;39539;52.202;9.876;2023-01-28T13:44:34;101913.66;;;1.08;83.81
19676;BME280;39539;52.202;9.876;2023-01-28T13:47:21;101917.06;;;0.97;84.14
19676;BME280;39539;52.202;9.876;2023-01-28T13:49:53;101919.41;;;0.89;84.10
19676;BME280;39539;52.202;9.876;2023-01-28T13:52:24;101910.91;;;0.74;83.48
19676;BME280;39539;52.202;9.876;2023-01-28T13:54:54;101916.16;;;0.74;85.49
19676;BME280;39539;52.202;9.876;2023-01-28T13:57:31;101926.16;;;0.80;84.72
19676;BME280;39539;52.202;9.876;2023-01-28T14:16:43;101928.31;;;1.10;86.27
19676;BME280;39539;52.202;9.876;2023-01-28T14:19:17;101918.44;;;1.14;86.35
19676;BME280;39539;52.202;9.876;2023-01-28T14:21:44;101909.25;;;1.08;85.24
19676;BME280;39539;52.202;9.876;2023-01-28T14:24:16;101901.97;;;1.01;86.28
19676;BME280;39539;52.202;9.876;2023-01-28T14:32:27;101894.91;;;0.42;92.30
19676;BME280;39539;52.202;9.876;2023-01-28T14:34:54;101887.00;;;0.31;92.80
19676;BME280;39539;52.202;9.876;2023-01-28T14:37:24;101884.72;;;0.26;95.02
19676;BME280;39539;52.202;9.876;2023-01-28T14:39:53;101873.53;;;0.24;94.63
19676;BME280;39539;52.202;9.876;2023-01-28T14:42:23;101880.88;;;0.19;94.69
19676;BME280;39539;52.202;9.876;2023-01-28T14:48:02;101892.56;;;-0.11;96.18
19676;BME280;39539;52.202;9.876;2023-01-28T14:58:10;101919.75;;;-0.39;99.33
19676;BME280;39539;52.202;9.876;2023-01-28T15:00:38;101943.13;;;-0.37;100.00
19676;BME280;39539;52.202;9.876;2023-01-28T15:03:16;101939.19;;;-0.30;100.00
19676;BME280;39539;52.202;9.876;2023-01-28T15:05:42;101936.56;;;-0.30;100.00
19676;BME280;39539;52.202;9.876;2023-01-28T15:08:07;101950.84;;;-0.23;100.00
19676;BME280;39539;52.202;9.876;2023-01-28T15:10:36;101954.84;;;-0.30;100.00
19676;BME280;39539;52.202;9.876;2023-01-28T15:13:27;101942.28;;;-0.38;100.00
19676;BME280;39539;52.202;9.876;2023-01-28T15:15:54;101934.78;;;-0.42;100.00